Time;durP1;ratioP1;P1;durP2;ratioP2;P2;SDS_P1;SDS_P2;PMS_P1;PMS_P2;Temp;Humidity;BMP_temperature;BMP_pressure;BME280_temperature;BME280_humidity;BME280_pressure;Samples;Min_cycle;Max_cycle;Signal;HPM_P1;HPM_P2
2022/06/11 00:00:45;;;;;;;15.35;5.32;;;;;;;24.63;51.07;102092.13;5013126;28;20034;-77
2022/06/11 00:03:11;;;;;;;19.80;6.78;;;;;;;25.02;50.07;102088.19;4999996;28;20046;-76
2022/06/11 00:05:37;;;;;;;15.40;6.10;;;;;;;24.34;52.11;102089.34;5006167;28;20390;-76
2022/06/11 00:08:03;;;;;;;11.43;5.80;;;;;;;24.26;52.69;102088.03;5006497;28;20033;-77
2022/06/11 00:10:29;;;;;;;16.13;5.78;;;;;;;23.54;54.58;102082.41;5005538;28;20393;-74
2022/06/11 00:12:54;;;;;;;15.35;6.03;;;;;;;24.28;52.44;102085.81;5012167;28;20125;-76
2022/06/11 00:15:20;;;;;;;15.88;6.25;;;;;;;24.19;52.39;102084.78;5005865;28;20042;-77
2022/06/11 00:17:45;;;;;;;16.48;6.65;;;;;;;24.29;51.99;102083.91;5005228;28;20034;-77
2022/06/11 00:20:11;;;;;;;11.23;5.80;;;;;;;24.05;53.26;102077.47;5011587;28;20505;-76
2022/06/11 00:22:37;;;;;;;9.73;5.93;;;;;;;24.36;52.29;102078.88;4994801;28;20046;-77
2022/06/11 00:25:03;;;;;;;15.95;7.28;;;;;;;24.39;51.96;102079.13;5012676;28;20497;-77
2022/06/11 00:27:29;;;;;;;15.00;6.97;;;;;;;24.66;50.93;102080.56;5011651;28;20102;-77
2022/06/11 00:29:55;;;;;;;11.68;6.43;;;;;;;24.56;51.56;102077.88;5007918;28;20038;-76
2022/06/11 00:32:21;;;;;;;11.18;6.13;;;;;;;24.11;52.29;102082.66;5010238;28;20030;-76
2022/06/11 00:34:46;;;;;;;11.23;6.28;;;;;;;24.39;51.77;102073.63;5012084;28;20100;-75
2022/06/11 00:37:15;;;;;;;15.90;5.97;;;;;;;24.51;51.71;102073.25;5009169;28;20331;-77
2022/06/11 00:39:41;;;;;;;10.98;6.55;;;;;;;24.31;51.65;102078.94;5010001;28;20087;-75
2022/06/11 00:42:14;;;;;;;13.45;6.45;;;;;;;24.59;51.30;102077.31;5011295;28;20034;-75
2022/06/11 00:44:39;;;;;;;9.95;6.03;;;;;;;24.56;51.21;102069.66;5010107;28;20041;-75
2022/06/11 00:47:22;;;;;;;9.57;6.47;;;;;;;24.42;51.04;102072.25;5011052;28;20053;-74
2022/06/11 00:49:57;;;;;;;15.45;7.20;;;;;;;24.42;50.96;102064.81;5009790;28;20149;-77
2022/06/11 00:52:31;;;;;;;10.65;6.97;;;;;;;24.21;51.66;102074.34;5006068;28;20034;-76
2022/06/11 00:55:04;;;;;;;13.65;6.20;;;;;;;23.99;52.92;102078.56;5010716;28;20114;-76
2022/06/11 00:57:34;;;;;;;12.90;6.60;;;;;;;24.04;52.29;102073.06;5010180;28;20128;-75
2022/06/11 01:00:09;;;;;;;13.52;7.57;;;;;;;24.48;51.01;102071.09;5005391;28;20046;-76
2022/06/11 01:02:34;;;;;;;14.05;6.20;;;;;;;24.14;51.81;102068.34;5007909;28;20045;-76
2022/06/11 01:05:04;;;;;;;14.25;7.13;;;;;;;24.12;51.95;102069.72;5011202;28;20034;-76
2022/06/11 01:07:54;;;;;;;13.00;7.33;;;;;;;24.10;52.16;102070.00;5010494;28;20042;-75
2022/06/11 01:10:59;;;;;;;18.30;7.38;;;;;;;23.81;52.76;102069.06;5007310;28;20034;-76
2022/06/11 01:14:03;;;;;;;11.07;6.88;;;;;;;24.17;51.53;102066.94;5000401;28;20503;-76
2022/06/11 01:16:39;;;;;;;9.80;6.72;;;;;;;23.31;54.37;102072.88;5010027;28;20057;-75
2022/06/11 01:19:10;;;;;;;12.52;7.03;;;;;;;23.22;54.58;102062.72;5003877;28;20068;-76
2022/06/11 01:21:45;;;;;;;8.35;6.85;;;;;;;22.89;56.36;102069.69;5009153;28;20042;-75
2022/06/11 01:24:41;;;;;;;14.30;7.90;;;;;;;22.91;55.98;102066.66;5009649;28;20044;-76
2022/06/11 01:27:29;;;;;;;12.15;7.10;;;;;;;23.45;54.13;102067.59;5009697;28;20056;-74
2022/06/11 01:30:07;;;;;;;8.18;6.60;;;;;;;23.49;54.44;102064.03;5009898;28;20038;-76
2022/06/11 01:32:45;;;;;;;12.05;7.10;;;;;;;23.38;54.11;102067.09;5005073;28;20104;-76
2022/06/11 01:35:32;;;;;;;10.68;6.82;;;;;;;23.43;53.83;102061.56;5009827;28;20045;-75
2022/06/11 01:38:06;;;;;;;12.25;7.53;;;;;;;23.73;53.33;102060.59;5010040;28;20034;-75
2022/06/11 01:40:52;;;;;;;11.40;7.25;;;;;;;24.17;51.91;102062.28;5010202;28;20041;-75
2022/06/11 01:43:35;;;;;;;12.95;6.63;;;;;;;24.15;51.62;102055.44;5004477;28;20037;-75
2022/06/11 01:46:05;;;;;;;17.17;6.70;;;;;;;23.95;51.80;102053.63;5004551;28;20048;-76
2022/06/11 01:48:31;;;;;;;14.75;6.78;;;;;;;23.95;52.20;102053.63;5005835;28;20386;-74
2022/06/11 01:51:22;;;;;;;12.05;6.50;;;;;;;23.93;51.62;102052.25;5009136;28;20044;-75
2022/06/11 01:54:14;;;;;;;11.23;7.20;;;;;;;23.51;52.69;102053.59;5005216;28;20030;-76
2022/06/11 01:57:01;;;;;;;13.32;6.57;;;;;;;23.25;53.29;102046.53;5013485;28;20087;-75
2022/06/11 01:59:35;;;;;;;10.95;7.13;;;;;;;22.87;54.69;102060.91;5014345;28;20049;-75
2022/06/11 02:02:36;;;;;;;8.95;5.43;;;;;;;22.26;56.29;102062.03;5014645;28;20113;-75
2022/06/11 02:05:10;;;;;;;;;;;;;;;22.35;56.33;102057.63;4953467;29;20054;-75
2022/06/11 02:07:50;;;;;;;8.73;4.97;;;;;;;22.09;56.87;102050.50;4953360;29;20004;-75
2022/06/11 02:10:28;;;;;;;10.85;5.25;;;;;;;22.59;55.26;102050.53;4952807;28;20460;-74
2022/06/11 02:13:05;;;;;;;10.10;5.07;;;;;;;22.37;55.73;102052.69;4952703;28;20121;-74
2022/06/11 02:15:40;;;;;;;15.10;5.22;;;;;;;22.06;56.50;102043.66;4952972;28;20105;-76
2022/06/11 02:18:09;;;;;;;7.72;4.72;;;;;;;21.75;57.08;102050.97;4952920;28;20451;-74
2022/06/11 02:20:43;;;;;;;9.57;5.00;;;;;;;22.72;54.16;102046.41;4952735;28;20066;-75
2022/06/11 02:23:18;;;;;;;10.15;4.82;;;;;;;21.54;56.85;102064.88;4952653;28;20043;-75
2022/06/11 02:25:48;;;;;;;12.80;4.53;;;;;;;21.50;56.23;102058.28;4934638;29;20131;-75
2022/06/11 02:28:19;;;;;;;8.68;4.47;;;;;;;22.33;53.83;102057.06;4952421;28;20667;-76
2022/06/11 02:30:46;;;;;;;8.52;3.60;;;;;;;22.16;54.44;102062.00;4953270;28;20589;-76
2022/06/11 02:33:14;;;;;;;12.75;4.15;;;;;;;21.76;55.13;102059.97;4952685;28;20534;-76
2022/06/11 02:35:46;;;;;;;6.55;3.92;;;;;;;21.90;54.98;102054.84;4952520;28;20035;-76
2022/06/11 02:38:16;;;;;;;10.40;4.60;;;;;;;21.98;54.78;102065.25;4953456;28;20682;-75
2022/06/11 02:40:50;;;;;;;8.68;4.60;;;;;;;22.00;54.41;102065.81;4953520;29;20031;-78
2022/06/11 02:43:16;;;;;;;8.77;3.90;;;;;;;22.44;53.27;102066.97;5007922;28;20034;-76
2022/06/11 02:45:42;;;;;;;10.55;4.90;;;;;;;22.28;53.95;102065.31;5009287;28;20441;-75
2022/06/11 02:48:07;;;;;;;9.85;4.70;;;;;;;22.03;54.93;102063.38;5012926;28;20050;-76
2022/06/11 02:50:34;;;;;;;8.45;4.20;;;;;;;22.45;53.17;102071.31;5006665;28;20037;-76
2022/06/11 02:53:03;;;;;;;13.82;4.28;;;;;;;22.06;54.45;102072.94;5012644;28;20121;-75
2022/06/11 02:55:29;;;;;;;11.20;4.47;;;;;;;22.28;53.76;102070.78;5006846;28;20470;-77
2022/06/11 02:57:55;;;;;;;8.88;4.90;;;;;;;22.28;53.95;102073.53;5012762;28;20042;-72
2022/06/11 03:00:25;;;;;;;7.53;4.22;;;;;;;21.57;56.02;102078.81;5012984;28;20030;-75
2022/06/11 03:02:50;;;;;;;7.88;4.13;;;;;;;21.65;56.27;102088.41;5012696;28;20045;-76
2022/06/11 03:05:19;;;;;;;6.85;3.97;;;;;;;22.05;54.69;102076.78;5012164;28;20034;-75
2022/06/11 03:07:45;;;;;;;7.72;3.78;;;;;;;21.92;55.31;102090.97;5011948;28;20064;-76
2022/06/11 03:10:15;;;;;;;12.68;3.92;;;;;;;21.48;56.62;102085.09;5012600;28;20050;-76
2022/06/11 03:12:40;;;;;;;7.65;3.60;;;;;;;21.01;57.96;102093.31;5012462;28;20042;-75
2022/06/11 03:15:06;;;;;;;11.13;4.13;;;;;;;21.25;57.21;102091.78;5012752;28;20029;-74
2022/06/11 03:17:31;;;;;;;11.38;3.80;;;;;;;21.83;55.48;102090.72;5008031;28;20540;-76
2022/06/11 03:19:57;;;;;;;7.10;3.50;;;;;;;21.63;56.13;102096.91;5012992;28;20117;-74
2022/06/11 03:22:22;;;;;;;14.55;5.32;;;;;;;21.74;55.86;102100.47;5007567;28;20042;-76
2022/06/11 03:24:48;;;;;;;7.63;4.28;;;;;;;21.41;57.03;102096.25;5011224;28;20037;-75
2022/06/11 03:27:15;;;;;;;12.52;5.32;;;;;;;21.92;55.77;102097.28;5012459;28;20129;-76
2022/06/11 03:29:41;;;;;;;10.07;4.57;;;;;;;21.67;56.12;102094.44;5012425;28;20477;-75
2022/06/11 03:32:07;;;;;;;8.93;6.13;;;;;;;21.96;55.00;102095.66;5006119;28;20034;-75
2022/06/11 03:34:32;;;;;;;12.57;5.40;;;;;;;21.45;56.76;102100.09;5012639;28;20665;-75
2022/06/11 03:36:58;;;;;;;12.32;6.03;;;;;;;21.33;57.54;102099.50;5012367;28;20037;-75
2022/06/11 03:39:24;;;;;;;7.07;4.93;;;;;;;21.37;57.51;102095.13;5012148;28;20034;-75
2022/06/11 03:41:50;;;;;;;8.50;5.47;;;;;;;21.45;56.99;102104.75;5005417;28;20069;-74
2022/06/11 03:44:16;;;;;;;12.23;4.93;;;;;;;21.33;57.39;102102.22;5012858;28;20037;-73
2022/06/11 03:46:42;;;;;;;10.50;5.28;;;;;;;21.41;56.39;102112.66;5012748;28;20034;-75
2022/06/11 03:49:07;;;;;;;7.50;4.45;;;;;;;20.82;58.55;102122.09;5011815;28;20087;-75
2022/06/11 03:51:33;;;;;;;11.25;4.32;;;;;;;21.71;55.94;102115.53;5011558;28;20093;-75
2022/06/11 03:53:59;;;;;;;10.82;5.25;;;;;;;21.34;56.30;102122.19;5005734;28;20034;-75
2022/06/11 03:56:25;;;;;;;7.95;3.95;;;;;;;21.09;57.17;102116.59;5012071;28;20046;-75
2022/06/11 03:58:52;;;;;;;11.57;4.10;;;;;;;21.21;56.75;102115.28;5011893;28;20057;-75
2022/06/11 04:01:23;;;;;;;8.55;4.63;;;;;;;21.50;56.19;102121.19;5006918;28;20108;-75
2022/06/11 04:03:59;;;;;;;6.47;3.80;;;;;;;21.33;56.31;102124.09;5011473;28;20034;-76
2022/06/11 04:06:29;;;;;;;8.95;4.00;;;;;;;21.19;56.53;102131.13;5008626;28;20034;-75
2022/06/11 04:08:54;;;;;;;8.48;3.72;;;;;;;21.27;56.27;102130.63;5011751;28;20038;-74
2022/06/11 04:11:21;;;;;;;7.25;4.15;;;;;;;21.37;55.36;102129.88;5011861;28;20029;-74
2022/06/11 04:13:48;;;;;;;7.53;3.83;;;;;;;20.96;56.80;102134.22;5011980;28;20084;-75
2022/06/11 04:16:47;;;;;;;11.32;4.13;;;;;;;21.27;56.51;102144.31;5011516;28;20482;-75
2022/06/11 04:19:18;;;;;;;10.13;4.03;;;;;;;21.38;56.12;102137.00;5005716;28;20126;-74
2022/06/11 04:21:44;;;;;;;6.50;4.00;;;;;;;20.48;58.82;102142.59;5007039;28;20069;-75
2022/06/11 04:24:10;;;;;;;6.10;3.83;;;;;;;21.57;55.45;102146.38;5004206;28;20057;-75
2022/06/11 04:26:40;;;;;;;7.85;4.03;;;;;;;20.87;57.90;102150.28;5010833;28;20038;-73
2022/06/11 04:29:07;;;;;;;7.95;3.30;;;;;;;20.99;57.35;102150.13;5011309;28;20564;-76
2022/06/11 04:31:34;;;;;;;15.77;4.00;;;;;;;21.47;56.34;102152.63;5011699;28;20386;-76
2022/06/11 04:34:00;;;;;;;11.43;4.00;;;;;;;21.23;57.06;102158.78;5010749;28;20081;-76
2022/06/11 04:36:28;;;;;;;12.55;3.58;;;;;;;21.38;56.16;102165.19;5004592;28;20038;-75
2022/06/11 04:38:54;;;;;;;14.10;4.18;;;;;;;20.41;58.90;102161.91;5010967;28;20038;-74
2022/06/11 04:41:20;;;;;;;13.52;3.58;;;;;;;21.08;57.39;102162.22;5004951;28;20040;-75
2022/06/11 04:43:46;;;;;;;13.95;3.65;;;;;;;21.17;57.19;102163.38;5011400;28;20095;-74
2022/06/11 04:46:12;;;;;;;15.25;4.10;;;;;;;21.01;56.85;102169.84;5011170;28;20606;-76
2022/06/11 04:48:38;;;;;;;12.52;3.38;;;;;;;20.56;58.16;102174.91;5011745;28;20520;-73
2022/06/11 04:51:05;;;;;;;10.60;3.47;;;;;;;21.03;56.32;102173.13;5004727;28;20120;-75
2022/06/11 04:53:30;;;;;;;9.68;3.28;;;;;;;20.91;56.79;102181.47;5011010;28;20041;-76
2022/06/11 04:55:56;;;;;;;12.27;3.67;;;;;;;21.29;55.94;102182.31;5011467;28;20057;-75
2022/06/11 04:58:21;;;;;;;10.32;3.13;;;;;;;20.80;57.10;102178.91;5010936;28;20054;-75
2022/06/11 05:00:47;;;;;;;15.18;3.00;;;;;;;20.72;57.02;102174.75;5011199;28;20042;-75
2022/06/11 05:03:13;;;;;;;10.38;3.90;;;;;;;21.04;56.22;102173.94;5011150;28;20518;-75
2022/06/11 05:05:39;;;;;;;12.57;3.35;;;;;;;21.77;53.78;102177.41;5004614;28;20035;-76
2022/06/11 05:08:04;;;;;;;18.83;4.10;;;;;;;21.34;55.47;102175.00;5004915;28;20414;-75
2022/06/11 05:10:34;;;;;;;11.75;4.20;;;;;;;20.99;56.40;102174.72;5005376;28;20050;-76
2022/06/11 05:12:59;;;;;;;10.88;2.17;;;;;;;20.69;57.26;102174.47;5011497;28;20042;-78
2022/06/11 05:15:25;;;;;;;14.27;3.67;;;;;;;21.40;55.90;102178.56;5000113;28;20510;-75
2022/06/11 05:17:50;;;;;;;9.00;2.78;;;;;;;20.82;57.05;102188.50;5007148;28;20453;-74
2022/06/11 05:20:17;;;;;;;9.18;2.72;;;;;;;20.78;57.43;102181.09;5003021;28;20026;-72
2022/06/11 05:22:45;;;;;;;13.85;2.70;;;;;;;21.22;55.95;102184.47;5004789;28;20527;-76
2022/06/11 05:25:15;;;;;;;13.48;2.95;;;;;;;21.07;55.96;102189.84;4990720;28;20129;-75
2022/06/11 05:27:42;;;;;;;16.13;2.92;;;;;;;21.66;54.69;102192.13;5002298;28;20041;-74
2022/06/11 05:30:24;;;;;;;8.82;2.35;;;;;;;21.90;54.05;102197.19;5008786;28;20041;-76
2022/06/11 05:32:50;;;;;;;11.85;2.65;;;;;;;21.84;54.32;102197.16;5007870;28;20037;-75
2022/06/11 05:35:24;;;;;;;8.70;2.80;;;;;;;21.87;53.73;102204.03;5003496;28;20037;-75
2022/06/11 05:37:51;;;;;;;12.02;3.03;;;;;;;21.56;54.61;102202.19;4998177;28;20109;-77
2022/06/11 05:40:21;;;;;;;14.05;3.00;;;;;;;21.42;54.25;102196.38;5003602;28;20038;-78
2022/06/11 05:42:49;;;;;;;14.88;4.05;;;;;;;21.82;53.43;102199.34;5010467;28;20049;-75
2022/06/11 05:45:18;;;;;;;16.65;4.20;;;;;;;21.52;54.33;102190.13;5010511;28;20038;-75
2022/06/11 05:47:46;;;;;;;23.95;4.03;;;;;;;21.93;52.71;102186.53;5010347;28;20034;-75
2022/06/11 05:50:16;;;;;;;16.95;3.90;;;;;;;21.82;52.87;102196.63;5001795;28;20026;-72
2022/06/11 05:52:45;;;;;;;18.75;4.80;;;;;;;21.93;53.59;102188.44;5010305;28;20029;-75
2022/06/11 05:55:13;;;;;;;16.27;3.97;;;;;;;21.69;53.32;102197.06;5006684;28;20048;-75
2022/06/11 05:57:39;;;;;;;12.73;2.63;;;;;;;21.51;54.04;102191.22;5008290;28;20080;-73
2022/06/11 06:00:10;;;;;;;23.75;4.75;;;;;;;22.18;51.72;102192.09;5009745;28;20098;-73
2022/06/11 06:02:36;;;;;;;16.67;3.30;;;;;;;22.84;51.00;102198.53;5005691;28;20040;-77
2022/06/11 06:05:01;;;;;;;20.55;4.10;;;;;;;21.63;52.88;102200.88;5014612;28;20481;-77
2022/06/11 06:07:27;;;;;;;20.60;3.35;;;;;;;21.69;52.72;102204.44;5016767;28;20037;-75
2022/06/11 06:09:52;;;;;;;17.42;4.43;;;;;;;21.68;53.59;102211.00;5014645;28;20035;-74
2022/06/11 06:12:18;;;;;;;21.10;3.53;;;;;;;22.00;52.17;102210.91;5018185;28;20038;-73
2022/06/11 06:14:44;;;;;;;21.10;4.97;;;;;;;22.20;50.65;102216.47;4999167;28;20505;-74
2022/06/11 06:17:10;;;;;;;20.38;3.78;;;;;;;21.43;53.68;102203.47;5014586;28;20164;-76
2022/06/11 06:19:35;;;;;;;11.57;3.42;;;;;;;21.90;52.57;102213.59;5016940;28;20041;-72
2022/06/11 06:22:04;;;;;;;15.07;3.97;;;;;;;21.62;53.31;102212.09;5013202;28;20142;-74
2022/06/11 06:24:31;;;;;;;15.48;3.05;;;;;;;22.17;52.10;102219.75;5011708;28;20440;-75
2022/06/11 06:26:57;;;;;;;16.85;4.30;;;;;;;22.21;51.54;102218.94;4995924;28;20596;-75
2022/06/11 06:29:23;;;;;;;16.02;3.00;;;;;;;21.89;52.11;102218.28;5014345;28;20034;-74
2022/06/11 06:31:48;;;;;;;23.85;3.42;;;;;;;21.94;51.68;102228.41;5012656;28;20474;-73
2022/06/11 06:34:13;;;;;;;21.05;4.05;;;;;;;22.06;52.49;102220.78;5009596;28;20046;-74
2022/06/11 06:36:39;;;;;;;20.73;4.43;;;;;;;22.34;50.71;102214.88;5014944;28;20040;-74
2022/06/11 06:39:04;;;;;;;20.27;3.63;;;;;;;22.40;49.90;102227.50;5005906;28;20038;-71
2022/06/11 06:41:30;;;;;;;21.80;5.10;;;;;;;22.56;50.37;102220.94;5011491;28;20482;-73
2022/06/11 06:43:55;;;;;;;20.42;4.55;;;;;;;22.52;50.86;102231.63;5013500;28;20398;-73
2022/06/11 06:46:21;;;;;;;19.98;4.18;;;;;;;22.33;51.87;102235.13;5007077;28;20096;-72
2022/06/11 06:48:46;;;;;;;26.50;5.32;;;;;;;22.32;51.43;102230.75;5012239;28;20038;-69
2022/06/11 06:51:12;;;;;;;18.70;3.45;;;;;;;23.11;48.82;102229.25;5001368;28;20438;-74
2022/06/11 06:53:39;;;;;;;17.17;3.53;;;;;;;23.27;49.33;102225.38;4995714;28;20041;-75
2022/06/11 06:56:05;;;;;;;18.95;3.90;;;;;;;22.92;49.29;102230.88;5013183;28;20032;-72
2022/06/11 06:58:30;;;;;;;25.48;5.35;;;;;;;23.26;49.19;102228.41;5012323;28;20049;-72
2022/06/11 07:00:56;;;;;;;20.92;4.72;;;;;;;23.30;48.10;102224.00;4993347;28;20034;-73
2022/06/11 07:03:22;;;;;;;14.80;3.40;;;;;;;22.68;49.49;102227.84;5008355;28;20038;-73
2022/06/11 07:05:48;;;;;;;18.70;3.40;;;;;;;22.48;50.82;102238.75;5006408;28;20390;-73
2022/06/11 07:08:15;;;;;;;22.67;4.22;;;;;;;22.61;50.10;102221.81;5012641;28;20080;-72
2022/06/11 07:10:46;;;;;;;22.17;4.65;;;;;;;22.79;49.80;102233.34;5011771;28;20037;-76
2022/06/11 07:13:11;;;;;;;28.73;3.53;;;;;;;22.84;49.54;102236.09;5012784;28;20034;-76
2022/06/11 07:15:37;;;;;;;22.27;4.07;;;;;;;23.07;49.46;102230.91;5008622;28;20030;-77
2022/06/11 07:18:21;;;;;;;25.85;4.43;;;;;;;22.47;50.70;102233.53;5012481;28;20474;-74
2022/06/11 07:20:49;;;;;;;20.83;4.45;;;;;;;23.08;49.11;102237.19;5011819;28;20517;-74
2022/06/11 07:23:35;;;;;;;17.25;4.07;;;;;;;23.31;49.32;102231.19;5011946;28;20117;-75
2022/06/11 07:26:05;;;;;;;28.55;4.25;;;;;;;22.72;50.51;102238.28;5012908;28;20087;-70
2022/06/11 07:28:37;;;;;;;16.80;3.53;;;;;;;23.34;49.38;102236.94;5006228;28;20617;-74
2022/06/11 07:31:03;;;;;;;20.08;3.58;;;;;;;22.75;50.46;102245.94;5012049;28;20140;-70
2022/06/11 07:33:29;;;;;;;25.20;4.13;;;;;;;22.99;49.79;102238.84;4987032;28;20030;-74
2022/06/11 07:35:55;;;;;;;19.13;4.20;;;;;;;22.92;49.29;102241.03;5008745;28;20092;-73
2022/06/11 07:38:21;;;;;;;24.05;4.13;;;;;;;22.98;49.25;102231.69;5011655;28;20061;-76
2022/06/11 07:40:48;;;;;;;14.40;3.35;;;;;;;23.11;49.32;102237.47;4982659;28;20045;-74
2022/06/11 07:43:14;;;;;;;25.63;4.28;;;;;;;23.45;47.49;102240.47;5011447;28;20050;-74
2022/06/11 07:45:41;;;;;;;16.77;3.83;;;;;;;23.37;48.80;102238.31;5004123;28;20065;-74
2022/06/11 07:48:08;;;;;;;21.95;4.40;;;;;;;23.36;47.95;102234.75;5010235;28;20038;-75
2022/06/11 07:50:37;;;;;;;20.40;4.05;;;;;;;23.69;47.70;102235.22;5007711;28;20068;-75
2022/06/11 07:53:04;;;;;;;18.38;2.58;;;;;;;24.06;46.53;102233.75;5008832;28;20061;-74
2022/06/11 07:55:30;;;;;;;19.10;3.47;;;;;;;23.70;47.45;102239.63;5012646;28;20056;-73
2022/06/11 07:57:56;;;;;;;19.45;4.50;;;;;;;24.26;46.15;102238.31;5017564;28;20040;-74
2022/06/11 08:00:28;;;;;;;21.23;3.80;;;;;;;23.66;48.02;102247.59;5010077;28;20035;-75
2022/06/11 08:02:53;;;;;;;21.27;3.63;;;;;;;24.65;45.29;102246.63;5010177;28;20046;-77
2022/06/11 08:05:20;;;;;;;19.98;4.18;;;;;;;24.26;45.90;102252.06;5009637;28;20061;-74
2022/06/11 08:07:46;;;;;;;22.00;3.60;;;;;;;24.48;45.16;102252.50;5010049;28;20087;-74
2022/06/11 08:10:13;;;;;;;21.15;3.55;;;;;;;24.43;45.59;102253.34;5009797;28;20038;-75
2022/06/11 08:12:38;;;;;;;16.83;4.00;;;;;;;24.81;44.77;102253.69;5009959;28;20064;-73
2022/06/11 08:15:05;;;;;;;23.55;3.60;;;;;;;24.74;44.47;102256.75;5009304;28;20033;-75
2022/06/11 08:17:32;;;;;;;25.02;4.63;;;;;;;24.74;44.50;102261.44;5009756;28;20056;-76
2022/06/11 08:19:58;;;;;;;23.52;4.22;;;;;;;24.69;44.64;102264.16;5009927;28;20049;-75
2022/06/11 08:22:23;;;;;;;18.48;4.00;;;;;;;24.72;44.62;102256.22;5009013;28;20574;-74
2022/06/11 08:24:49;;;;;;;21.33;4.50;;;;;;;24.11;45.13;102260.38;5007857;28;20036;-74
2022/06/11 08:27:16;;;;;;;19.42;4.00;;;;;;;24.49;43.70;102261.56;5008539;28;20044;-74
2022/06/11 08:29:42;;;;;;;21.15;4.05;;;;;;;24.05;43.83;102269.72;5006316;28;20582;-72
2022/06/11 08:32:09;;;;;;;22.33;4.28;;;;;;;24.08;43.51;102275.47;5008834;28;20058;-73
2022/06/11 08:34:40;;;;;;;18.25;3.47;;;;;;;24.82;40.81;102266.34;5007206;28;20026;-75
2022/06/11 08:37:07;;;;;;;14.63;3.22;;;;;;;24.93;41.41;102274.22;5006273;28;20538;-76
2022/06/11 08:39:34;;;;;;;15.10;2.90;;;;;;;25.47;41.24;102276.00;5005011;28;20038;-77
2022/06/11 08:42:01;;;;;;;23.13;4.38;;;;;;;26.10;40.40;102278.34;5007442;28;20046;-77
2022/06/11 08:44:31;;;;;;;22.52;4.18;;;;;;;25.73;41.28;102278.19;5009585;28;20071;-75
2022/06/11 08:47:02;;;;;;;21.92;3.83;;;;;;;24.36;43.64;102272.06;5008792;28;20489;-73
2022/06/11 08:49:51;;;;;;;13.95;3.90;;;;;;;25.60;41.03;102267.88;5008934;28;20923;-76
2022/06/11 08:52:21;;;;;;;19.33;4.10;;;;;;;25.56;39.68;102275.09;5006028;28;20022;-74
2022/06/11 08:54:47;;;;;;;10.13;3.78;;;;;;;25.59;40.65;102266.22;5008572;28;20115;-75
2022/06/11 08:57:34;;;;;;;27.30;2.92;;;;;;;25.65;40.40;102269.78;5006135;28;20033;-75
2022/06/11 09:00:06;;;;;;;13.27;3.60;;;;;;;25.72;39.67;102268.31;5008378;28;20537;-73
2022/06/11 09:02:37;;;;;;;17.70;3.55;;;;;;;25.73;40.10;102271.88;5007517;28;20057;-72
2022/06/11 09:05:08;;;;;;;17.55;3.63;;;;;;;25.07;40.14;102269.72;5007284;28;20033;-74
2022/06/11 09:08:08;;;;;;;19.75;3.67;;;;;;;25.33;39.30;102264.81;5006621;28;20493;-77
2022/06/11 09:10:58;;;;;;;13.07;2.70;;;;;;;26.14;37.44;102264.81;5007276;28;20032;-71
2022/06/11 09:13:41;;;;;;;21.20;5.43;;;;;;;26.20;38.54;102263.63;4989341;28;20041;-75
2022/06/11 09:16:16;;;;;;;15.23;2.88;;;;;;;26.18;39.32;102257.59;5004167;28;20084;-74
2022/06/11 09:19:10;;;;;;;16.08;3.50;;;;;;;26.56;37.67;102267.53;4990529;28;20072;-74
2022/06/11 09:21:59;;;;;;;18.30;4.05;;;;;;;26.52;38.21;102276.69;5007074;28;20038;-74
2022/06/11 09:24:49;;;;;;;13.20;3.17;;;;;;;26.11;38.00;102262.66;5004689;28;20037;-76
2022/06/11 09:27:37;;;;;;;12.32;2.80;;;;;;;26.18;37.82;102265.06;5004820;28;20045;-73
2022/06/11 09:30:07;;;;;;;16.63;3.85;;;;;;;26.55;37.15;102268.69;5007195;28;20033;-72
2022/06/11 09:32:47;;;;;;;21.98;4.18;;;;;;;25.98;39.39;102268.84;5005539;28;20034;-75
2022/06/11 09:35:13;;;;;;;;;;;;;;;26.02;36.94;102264.38;5008031;28;20038;-72
2022/06/11 09:38:17;;;;;;;13.88;3.10;;;;;;;26.47;36.92;102279.53;4999379;28;19931;-73
2022/06/11 09:40:50;;;;;;;16.50;2.85;;;;;;;26.18;36.17;102268.59;4927510;29;20421;-74
2022/06/11 09:43:21;;;;;;;19.38;4.30;;;;;;;26.97;35.46;102278.00;4928511;29;20536;-73
2022/06/11 09:45:59;;;;;;;13.27;3.67;;;;;;;26.14;35.72;102273.09;4928063;29;20051;-74
2022/06/11 09:48:45;;;;;;;12.73;2.35;;;;;;;26.91;35.11;102278.06;4926713;29;20050;-76
2022/06/11 09:51:19;;;;;;;17.85;2.30;;;;;;;27.11;32.74;102276.94;4928523;29;20048;-74
2022/06/11 09:54:07;;;;;;;19.00;3.03;;;;;;;26.40;35.01;102274.38;4929388;29;20059;-74
2022/06/11 09:57:11;;;;;;;11.05;2.22;;;;;;;25.70;32.74;102280.72;4927534;29;20043;-73
2022/06/11 09:59:44;;;;;;;14.98;3.22;;;;;;;26.43;32.11;102282.06;4927554;29;20119;-74
2022/06/11 10:02:32;;;;;;;10.35;2.60;;;;;;;26.28;33.36;102276.75;4927863;29;20453;-73
2022/06/11 10:05:02;;;;;;;17.63;3.33;;;;;;;26.60;33.21;102274.09;4929170;29;20035;-74
2022/06/11 10:07:35;;;;;;;7.65;2.33;;;;;;;26.65;33.08;102279.53;4927506;29;20055;-74
2022/06/11 10:10:10;;;;;;;18.38;2.58;;;;;;;26.27;31.35;102280.63;4928595;29;20059;-74
2022/06/11 10:12:55;;;;;;;10.23;2.30;;;;;;;26.77;31.06;102268.91;4925773;29;20039;-75
2022/06/11 10:15:25;;;;;;;14.43;2.88;;;;;;;26.31;32.84;102278.09;4935464;28;20225;-76
2022/06/11 10:18:01;;;;;;;14.15;2.38;;;;;;;26.51;31.64;102284.19;5010324;28;20546;-71
2022/06/11 10:20:39;;;;;;;20.13;3.38;;;;;;;27.06;30.85;102287.25;4995155;28;20045;-74
2022/06/11 10:23:20;;;;;;;16.08;3.13;;;;;;;27.11;31.04;102289.91;5016629;28;20091;-74
2022/06/11 10:26:07;;;;;;;12.95;2.88;;;;;;;26.99;32.67;102292.34;5010431;28;20045;-73
2022/06/11 10:28:35;;;;;;;10.10;2.20;;;;;;;26.68;32.29;102286.41;5014149;28;20061;-74
2022/06/11 10:31:25;;;;;;;14.10;3.10;;;;;;;27.13;31.77;102287.66;5008261;28;20049;-74
2022/06/11 10:33:59;;;;;;;11.50;3.03;;;;;;;26.61;32.32;102297.00;5010002;28;20030;-72
2022/06/11 10:36:34;;;;;;;16.10;3.20;;;;;;;26.93;32.12;102295.16;5008942;28;20099;-72
2022/06/11 10:39:18;;;;;;;12.73;2.55;;;;;;;27.04;32.14;102290.31;5009524;28;20641;-69
2022/06/11 10:41:54;;;;;;;9.90;2.47;;;;;;;27.24;31.61;102289.97;5010828;28;20125;-74
2022/06/11 10:44:31;;;;;;;12.60;2.45;;;;;;;27.54;31.54;102286.69;4993142;28;20433;-74
2022/06/11 10:46:57;;;;;;;14.75;3.25;;;;;;;27.97;31.31;102290.03;5010924;28;20040;-75
2022/06/11 10:49:23;;;;;;;18.65;2.85;;;;;;;27.16;30.51;102292.59;5010059;28;20127;-74
2022/06/11 10:52:19;;;;;;;16.80;2.83;;;;;;;27.57;31.07;102290.81;5010452;28;20550;-73
2022/06/11 10:54:44;;;;;;;11.02;3.40;;;;;;;27.22;30.87;102307.97;4947340;28;20131;-73
2022/06/11 10:57:29;;;;;;;8.52;2.13;;;;;;;26.98;30.24;102291.50;4950087;29;20055;-72
2022/06/11 11:00:06;;;;;;;11.15;2.45;;;;;;;27.31;30.40;102287.63;4943688;29;20158;-72
2022/06/11 11:02:43;;;;;;;10.15;2.20;;;;;;;26.90;31.69;102312.31;4939468;29;20051;-75
2022/06/11 11:05:12;;;;;;;12.60;2.72;;;;;;;27.31;30.78;102284.88;4945407;29;20058;-75
2022/06/11 11:07:43;;;;;;;16.17;3.50;;;;;;;27.61;31.41;102278.03;4939813;29;20039;-75
2022/06/11 11:10:43;;;;;;;12.30;2.45;;;;;;;27.44;31.06;102283.31;4938702;28;20528;-72
2022/06/11 11:13:18;;;;;;;9.68;2.17;;;;;;;26.36;30.04;102294.59;4894148;29;20528;-71
2022/06/11 11:15:54;;;;;;;8.02;2.10;;;;;;;27.65;30.12;102288.16;4894282;29;20039;-72
2022/06/11 11:18:23;;;;;;;14.98;3.00;;;;;;;28.23;28.33;102277.34;4892867;29;20048;-76
2022/06/11 11:20:53;;;;;;;18.40;2.58;;;;;;;28.63;29.12;102267.38;4893079;29;20501;-74
2022/06/11 11:23:34;;;;;;;11.63;2.10;;;;;;;27.80;29.40;102287.03;4892075;29;20048;-76
2022/06/11 11:26:06;;;;;;;6.88;1.67;;;;;;;27.96;28.98;102285.66;4887938;29;20455;-73
2022/06/11 11:28:43;;;;;;;16.40;3.55;;;;;;;27.75;30.78;102281.63;4891858;29;20127;-74
2022/06/11 11:31:26;;;;;;;13.20;2.42;;;;;;;27.71;31.29;102281.41;4892783;29;20067;-75
2022/06/11 11:34:14;;;;;;;10.90;2.67;;;;;;;27.72;29.44;102280.28;4914770;29;20069;-73
2022/06/11 11:36:40;;;;;;;10.98;2.35;;;;;;;27.51;30.00;102294.78;4909142;29;20085;-74
2022/06/11 11:39:16;;;;;;;18.58;3.10;;;;;;;27.46;29.51;102278.31;4905383;29;20044;-72